sensor_id;sensor_type;location;lat;lon;timestamp;noise_LAeq;noise_LA_min;noise_LA_max;noise_LA01;noise_LA95
67304;Laerm;57660;51.436;5.978;2023-06-10T00:00:06;47.26;46.58;48.09;;
67304;Laerm;57660;51.436;5.978;2023-06-10T00:00:22;47.25;46.34;48.17;;
67304;Laerm;57660;51.436;5.978;2023-06-10T00:00:38;47.28;46.30;48.06;;
67304;Laerm;57660;51.436;5.978;2023-06-10T00:00:51;47.26;46.34;48.30;;
67304;Laerm;57660;51.436;5.978;2023-06-10T00:01:09;47.25;46.30;48.29;;
67304;Laerm;57660;51.436;5.978;2023-06-10T00:01:23;47.25;46.37;48.24;;
67304;Laerm;57660;51.436;5.978;2023-06-10T00:01:35;47.27;46.47;48.43;;
67304;Laerm;57660;51.436;5.978;2023-06-10T00:01:49;47.27;46.20;48.03;;
67304;Laerm;57660;51.436;5.978;2023-06-10T00:02:14;47.29;46.46;48.05;;
67304;Laerm;57660;51.436;5.978;2023-06-10T00:02:25;47.26;46.09;48.31;;
67304;Laerm;57660;51.436;5.978;2023-06-10T00:02:39;47.26;46.51;48.01;;
67304;Laerm;57660;51.436;5.978;2023-06-10T00:02:49;47.28;46.28;48.22;;
67304;Laerm;57660;51.436;5.978;2023-06-10T00:03:01;47.24;46.36;47.98;;
67304;Laerm;57660;51.436;5.978;2023-06-10T00:03:12;47.30;46.44;48.26;;
67304;Laerm;57660;51.436;5.978;2023-06-10T00:03:31;47.31;46.46;48.20;;
67304;Laerm;57660;51.436;5.978;2023-06-10T00:03:42;47.27;46.34;48.27;;
67304;Laerm;57660;51.436;5.978;2023-06-10T00:03:59;47.27;46.55;48.24;;
67304;Laerm;57660;51.436;5.978;2023-06-10T00:04:09;47.29;46.39;48.18;;
67304;Laerm;57660;51.436;5.978;2023-06-10T00:04:29;47.30;46.43;48.17;;
67304;Laerm;57660;51.436;5.978;2023-06-10T00:04:39;47.28;46.13;48.15;;
67304;Laerm;57660;51.436;5.978;2023-06-10T00:05:05;47.27;46.23;48.16;;
67304;Laerm;57660;51.436;5.978;2023-06-10T00:05:15;47.27;46.27;48.22;;
67304;Laerm;57660;51.436;5.978;2023-06-10T00:05:29;47.28;46.25;48.19;;
67304;Laerm;57660;51.436;5.978;2023-06-10T00:05:42;47.28;46.31;48.04;;
67304;Laerm;57660;51.436;5.978;2023-06-10T00:05:58;47.27;46.28;48.09;;
67304;Laerm;57660;51.436;5.978;2023-06-10T00:06:08;47.28;46.35;48.26;;
67304;Laerm;57660;51.436;5.978;2023-06-10T00:06:19;47.27;46.45;48.28;;
67304;Laerm;57660;51.436;5.978;2023-06-10T00:06:39;47.26;46.28;47.98;;
67304;Laerm;57660;51.436;5.978;2023-06-10T00:06:49;47.27;46.42;48.37;;
67304;Laerm;57660;51.436;5.978;2023-06-10T00:07:09;47.27;46.31;48.18;;
67304;Laerm;57660;51.436;5.978;2023-06-10T00:07:20;47.31;46.28;48.24;;
67304;Laerm;57660;51.436;5.978;2023-06-10T00:07:36;47.28;46.31;48.12;;
67304;Laerm;57660;51.436;5.978;2023-06-10T00:07:51;47.28;46.31;48.32;;
67304;Laerm;57660;51.436;5.978;2023-06-10T00:08:17;47.28;45.96;48.29;;
67304;Laerm;57660;51.436;5.978;2023-06-10T00:08:36;47.27;46.51;48.12;;
67304;Laerm;57660;51.436;5.978;2023-06-10T00:08:50;47.28;46.17;48.16;;
67304;Laerm;57660;51.436;5.978;2023-06-10T00:09:10;47.23;46.12;48.19;;
67304;Laerm;57660;51.436;5.978;2023-06-10T00:09:20;47.27;46.40;48.32;;
67304;Laerm;57660;51.436;5.978;2023-06-10T00:09:40;47.27;46.35;48.14;;
67304;Laerm;57660;51.436;5.978;2023-06-10T00:09:50;47.27;46.14;48.20;;
67304;Laerm;57660;51.436;5.978;2023-06-10T00:10:09;47.27;46.16;48.10;;
67304;Laerm;57660;51.436;5.978;2023-06-10T00:10:20;47.25;46.30;48.06;;
67304;Laerm;57660;51.436;5.978;2023-06-10T00:10:39;47.28;46.41;48.02;;
67304;Laerm;57660;51.436;5.978;2023-06-10T00:11:16;47.25;46.33;48.14;;
67304;Laerm;57660;51.436;5.978;2023-06-10T00:11:30;47.26;46.62;48.13;;
67304;Laerm;57660;51.436;5.978;2023-06-10T00:11:40;47.30;46.45;48.06;;
67304;Laerm;57660;51.436;5.978;2023-06-10T00:12:06;47.27;46.37;48.37;;
67304;Laerm;57660;51.436;5.978;2023-06-10T00:12:17;47.27;46.34;48.24;;
67304;Laerm;57660;51.436;5.978;2023-06-10T00:12:28;47.28;46.44;48.08;;
67304;Laerm;57660;51.436;5.978;2023-06-10T00:12:41;47.29;46.46;48.24;;
67304;Laerm;57660;51.436;5.978;2023-06-10T00:13:07;47.29;46.44;48.20;;
67304;Laerm;57660;51.436;5.978;2023-06-10T00:13:21;47.26;46.28;48.20;;
67304;Laerm;57660;51.436;5.978;2023-06-10T00:13:37;47.29;46.39;48.09;;
67304;Laerm;57660;51.436;5.978;2023-06-10T00:13:47;47.27;46.28;48.21;;
67304;Laerm;57660;51.436;5.978;2023-06-10T00:14:01;47.29;46.33;48.39;;
67304;Laerm;57660;51.436;5.978;2023-06-10T00:14:11;47.29;46.39;48.02;;
67304;Laerm;57660;51.436;5.978;2023-06-10T00:14:27;47.27;46.17;48.02;;
67304;Laerm;57660;51.436;5.978;2023-06-10T00:14:38;47.29;46.44;48.26;;
67304;Laerm;57660;51.436;5.978;2023-06-10T00:14:51;47.29;46.52;48.15;;
67304;Laerm;57660;51.436;5.978;2023-06-10T00:15:04;47.28;46.48;48.05;;
67304;Laerm;57660;51.436;5.978;2023-06-10T00:15:20;47.29;46.17;47.94;;
67304;Laerm;57660;51.436;5.978;2023-06-10T00:15:30;47.28;46.36;48.34;;
67304;Laerm;57660;51.436;5.978;2023-06-10T00:15:46;47.25;46.42;48.22;;
67304;Laerm;57660;51.436;5.978;2023-06-10T00:15:57;47.28;46.29;48.26;;
67304;Laerm;57660;51.436;5.978;2023-06-10T00:16:13;47.30;46.49;48.26;;
67304;Laerm;57660;51.436;5.978;2023-06-10T00:16:23;47.28;46.29;48.25;;
67304;Laerm;57660;51.436;5.978;2023-06-10T00:16:36;47.30;46.50;48.29;;
67304;Laerm;57660;51.436;5.978;2023-06-10T00:16:46;47.30;46.28;48.13;;
67304;Laerm;57660;51.436;5.978;2023-06-10T00:17:05;47.28;46.50;47.96;;
67304;Laerm;57660;51.436;5.978;2023-06-10T00:17:27;47.29;46.38;48.19;;
67304;Laerm;57660;51.436;5.978;2023-06-10T00:17:44;47.29;46.41;48.24;;
67304;Laerm;57660;51.436;5.978;2023-06-10T00:17:57;47.28;46.36;48.08;;
67304;Laerm;57660;51.436;5.978;2023-06-10T00:18:10;47.28;46.56;48.05;;
67304;Laerm;57660;51.436;5.978;2023-06-10T00:18:25;47.28;46.06;48.12;;
67304;Laerm;57660;51.436;5.978;2023-06-10T00:18:55;47.29;46.33;48.28;;
67304;Laerm;57660;51.436;5.978;2023-06-10T00:19:08;47.27;46.33;48.06;;
67304;Laerm;57660;51.436;5.978;2023-06-10T00:19:19;47.28;46.37;48.07;;
67304;Laerm;57660;51.436;5.978;2023-06-10T00:20:05;47.28;46.37;48.24;;
67304;Laerm;57660;51.436;5.978;2023-06-10T00:20:19;47.25;46.17;48.35;;
67304;Laerm;57660;51.436;5.978;2023-06-10T00:20:51;47.29;46.17;48.40;;
67304;Laerm;57660;51.436;5.978;2023-06-10T00:21:42;47.29;46.21;48.30;;
67304;Laerm;57660;51.436;5.978;2023-06-10T00:22:06;47.29;46.29;48.16;;
67304;Laerm;57660;51.436;5.978;2023-06-10T00:22:20;47.31;46.22;48.22;;
67304;Laerm;57660;51.436;5.978;2023-06-10T00:22:37;47.28;46.40;48.16;;
67304;Laerm;57660;51.436;5.978;2023-06-10T00:22:57;47.29;46.48;48.11;;
67304;Laerm;57660;51.436;5.978;2023-06-10T00:23:08;47.28;46.24;48.27;;
67304;Laerm;57660;51.436;5.978;2023-06-10T00:23:22;47.29;46.33;48.06;;
67304;Laerm;57660;51.436;5.978;2023-06-10T00:23:35;47.27;46.29;48.23;;
67304;Laerm;57660;51.436;5.978;2023-06-10T00:23:54;47.29;46.35;48.08;;
67304;Laerm;57660;51.436;5.978;2023-06-10T00:24:05;47.29;46.31;48.11;;
67304;Laerm;57660;51.436;5.978;2023-06-10T00:24:28;47.31;46.50;48.13;;
67304;Laerm;57660;51.436;5.978;2023-06-10T00:24:38;47.29;46.31;48.25;;
67304;Laerm;57660;51.436;5.978;2023-06-10T00:24:52;47.29;46.19;48.08;;
67304;Laerm;57660;51.436;5.978;2023-06-10T00:25:05;47.28;46.32;48.21;;
67304;Laerm;57660;51.436;5.978;2023-06-10T00:25:28;47.31;46.49;48.20;;
67304;Laerm;57660;51.436;5.978;2023-06-10T00:25:38;47.30;46.32;48.20;;
67304;Laerm;57660;51.436;5.978;2023-06-10T00:25:49;47.29;46.26;48.18;;
67304;Laerm;57660;51.436;5.978;2023-06-10T00:26:08;47.28;46.10;48.15;;
67304;Laerm;57660;51.436;5.978;2023-06-10T00:26:27;47.28;46.32;48.11;;
67304;Laerm;57660;51.436;5.978;2023-06-10T00:26:38;47.29;46.26;48.19;;
67304;Laerm;57660;51.436;5.978;2023-06-10T00:26:49;47.29;46.19;48.12;;
67304;Laerm;57660;51.436;5.978;2023-06-10T00:27:34;47.29;46.39;48.31;;
67304;Laerm;57660;51.436;5.978;2023-06-10T00:27:45;47.28;46.37;48.27;;
67304;Laerm;57660;51.436;5.978;2023-06-10T00:28:04;47.31;46.23;47.97;;
67304;Laerm;57660;51.436;5.978;2023-06-10T00:28:14;47.31;46.05;48.44;;
67304;Laerm;57660;51.436;5.978;2023-06-10T00:28:32;47.30;46.40;48.20;;
67304;Laerm;57660;51.436;5.978;2023-06-10T00:28:42;47.30;46.26;48.22;;
67304;Laerm;57660;51.436;5.978;2023-06-10T00:29:26;47.31;46.23;48.26;;
67304;Laerm;57660;51.436;5.978;2023-06-10T00:29:40;47.29;46.25;48.16;;
67304;Laerm;57660;51.436;5.978;2023-06-10T00:29:57;47.27;46.33;48.06;;
67304;Laerm;57660;51.436;5.978;2023-06-10T00:30:08;47.26;46.46;48.06;;
67304;Laerm;57660;51.436;5.978;2023-06-10T00:30:25;47.26;46.42;48.10;;
67304;Laerm;57660;51.436;5.978;2023-06-10T00:30:36;47.31;46.21;48.27;;
67304;Laerm;57660;51.436;5.978;2023-06-10T00:30:46;47.31;46.26;48.21;;
67304;Laerm;57660;51.436;5.978;2023-06-10T00:31:12;47.27;46.36;48.26;;
67304;Laerm;57660;51.436;5.978;2023-06-10T00:31:22;47.32;46.25;48.17;;
67304;Laerm;57660;51.436;5.978;2023-06-10T00:31:36;47.31;46.52;48.08;;
67304;Laerm;57660;51.436;5.978;2023-06-10T00:31:47;47.28;46.47;48.26;;
67304;Laerm;57660;51.436;5.978;2023-06-10T00:32:00;47.31;46.59;48.12;;
67304;Laerm;57660;51.436;5.978;2023-06-10T00:32:10;47.28;46.48;48.16;;
67304;Laerm;57660;51.436;5.978;2023-06-10T00:32:32;47.26;46.37;48.06;;
67304;Laerm;57660;51.436;5.978;2023-06-10T00:32:45;47.29;46.43;48.42;;
67304;Laerm;57660;51.436;5.978;2023-06-10T00:32:58;47.28;46.40;48.34;;
67304;Laerm;57660;51.436;5.978;2023-06-10T00:33:11;47.28;46.40;48.15;;
67304;Laerm;57660;51.436;5.978;2023-06-10T00:33:42;47.33;46.28;48.28;;
67304;Laerm;57660;51.436;5.978;2023-06-10T00:33:52;47.31;46.29;48.17;;
67304;Laerm;57660;51.436;5.978;2023-06-10T00:34:17;47.28;46.32;48.37;;
67304;Laerm;57660;51.436;5.978;2023-06-10T00:34:48;47.28;46.36;48.05;;
67304;Laerm;57660;51.436;5.978;2023-06-10T00:35:04;47.30;46.30;48.39;;
67304;Laerm;57660;51.436;5.978;2023-06-10T00:35:17;47.31;46.33;48.18;;
67304;Laerm;57660;51.436;5.978;2023-06-10T00:35:31;47.30;46.57;48.14;;
67304;Laerm;57660;51.436;5.978;2023-06-10T00:35:43;47.31;46.11;48.08;;
67304;Laerm;57660;51.436;5.978;2023-06-10T00:36:05;47.30;46.45;48.23;;
67304;Laerm;57660;51.436;5.978;2023-06-10T00:36:15;47.29;46.27;48.26;;
67304;Laerm;57660;51.436;5.978;2023-06-10T00:36:35;47.27;46.48;48.11;;
67304;Laerm;57660;51.436;5.978;2023-06-10T00:36:48;47.32;46.31;48.48;;
67304;Laerm;57660;51.436;5.978;2023-06-10T00:37:07;47.35;46.33;48.14;;
67304;Laerm;57660;51.436;5.978;2023-06-10T00:37:17;47.32;46.41;48.20;;
67304;Laerm;57660;51.436;5.978;2023-06-10T00:37:33;47.34;46.48;48.18;;
67304;Laerm;57660;51.436;5.978;2023-06-10T00:37:46;47.31;46.48;48.19;;
67304;Laerm;57660;51.436;5.978;2023-06-10T00:38:02;47.32;46.37;48.30;;
67304;Laerm;57660;51.436;5.978;2023-06-10T00:38:13;47.31;46.10;48.26;;
67304;Laerm;57660;51.436;5.978;2023-06-10T00:38:39;47.34;46.53;48.05;;
67304;Laerm;57660;51.436;5.978;2023-06-10T00:38:50;47.30;46.52;48.28;;
67304;Laerm;57660;51.436;5.978;2023-06-10T00:39:07;47.31;46.50;48.55;;
67304;Laerm;57660;51.436;5.978;2023-06-10T00:39:17;47.31;46.35;48.12;;
67304;Laerm;57660;51.436;5.978;2023-06-10T00:39:33;47.28;46.30;48.32;;
67304;Laerm;57660;51.436;5.978;2023-06-10T00:39:46;47.29;46.48;48.28;;
67304;Laerm;57660;51.436;5.978;2023-06-10T00:40:02;47.33;46.14;48.14;;
67304;Laerm;57660;51.436;5.978;2023-06-10T00:40:16;47.33;46.39;48.36;;
67304;Laerm;57660;51.436;5.978;2023-06-10T00:40:26;47.32;46.45;48.13;;
67304;Laerm;57660;51.436;5.978;2023-06-10T00:40:49;47.28;46.34;48.09;;
67304;Laerm;57660;51.436;5.978;2023-06-10T00:41:05;47.29;46.29;48.04;;
67304;Laerm;57660;51.436;5.978;2023-06-10T00:41:15;47.31;46.55;48.06;;
67304;Laerm;57660;51.436;5.978;2023-06-10T00:41:34;47.29;46.47;48.18;;
67304;Laerm;57660;51.436;5.978;2023-06-10T00:41:44;47.29;46.29;48.23;;
67304;Laerm;57660;51.436;5.978;2023-06-10T00:41:55;47.29;46.28;48.29;;
67304;Laerm;57660;51.436;5.978;2023-06-10T00:42:29;47.30;46.26;48.14;;
67304;Laerm;57660;51.436;5.978;2023-06-10T00:42:45;47.30;46.43;48.43;;
67304;Laerm;57660;51.436;5.978;2023-06-10T00:43:07;47.29;46.35;48.01;;
67304;Laerm;57660;51.436;5.978;2023-06-10T00:43:17;47.30;46.40;48.19;;
67304;Laerm;57660;51.436;5.978;2023-06-10T00:43:36;47.29;46.33;48.37;;
67304;Laerm;57660;51.436;5.978;2023-06-10T00:43:46;47.30;46.31;48.28;;
67304;Laerm;57660;51.436;5.978;2023-06-10T00:44:02;47.31;46.47;48.00;;
67304;Laerm;57660;51.436;5.978;2023-06-10T00:44:15;47.33;46.27;48.21;;
67304;Laerm;57660;51.436;5.978;2023-06-10T00:44:35;47.29;46.41;48.04;;
67304;Laerm;57660;51.436;5.978;2023-06-10T00:44:47;47.31;46.32;48.26;;
67304;Laerm;57660;51.436;5.978;2023-06-10T00:44:57;47.31;46.25;48.10;;
67304;Laerm;57660;51.436;5.978;2023-06-10T00:45:19;47.29;46.37;48.28;;
67304;Laerm;57660;51.436;5.978;2023-06-10T00:45:38;47.31;46.28;48.31;;
67304;Laerm;57660;51.436;5.978;2023-06-10T00:45:48;47.31;46.46;48.28;;
67304;Laerm;57660;51.436;5.978;2023-06-10T00:46:05;47.32;46.18;48.20;;
67304;Laerm;57660;51.436;5.978;2023-06-10T00:46:15;47.32;46.40;48.31;;
67304;Laerm;57660;51.436;5.978;2023-06-10T00:46:38;47.31;46.29;48.42;;
67304;Laerm;57660;51.436;5.978;2023-06-10T00:46:48;47.32;46.38;48.18;;
67304;Laerm;57660;51.436;5.978;2023-06-10T00:47:09;47.28;46.43;48.10;;
67304;Laerm;57660;51.436;5.978;2023-06-10T00:47:19;47.30;46.34;48.15;;
67304;Laerm;57660;51.436;5.978;2023-06-10T00:47:32;47.30;46.42;47.95;;
67304;Laerm;57660;51.436;5.978;2023-06-10T00:47:45;47.29;46.35;48.21;;
67304;Laerm;57660;51.436;5.978;2023-06-10T00:48:04;47.30;46.42;48.08;;
67304;Laerm;57660;51.436;5.978;2023-06-10T00:48:18;47.31;46.40;48.30;;
67304;Laerm;57660;51.436;5.978;2023-06-10T00:48:34;47.30;46.30;48.06;;
67304;Laerm;57660;51.436;5.978;2023-06-10T00:48:47;47.31;46.25;48.32;;
67304;Laerm;57660;51.436;5.978;2023-06-10T00:48:57;47.31;46.52;48.13;;
67304;Laerm;57660;51.436;5.978;2023-06-10T00:49:39;47.32;46.32;48.09;;
67304;Laerm;57660;51.436;5.978;2023-06-10T00:49:50;47.30;46.31;48.05;;
67304;Laerm;57660;51.436;5.978;2023-06-10T00:50:07;47.30;46.56;48.39;;
67304;Laerm;57660;51.436;5.978;2023-06-10T00:50:19;47.33;46.41;48.04;;
67304;Laerm;57660;51.436;5.978;2023-06-10T00:50:35;47.31;46.60;48.18;;
67304;Laerm;57660;51.436;5.978;2023-06-10T00:50:49;47.31;46.17;48.12;;
67304;Laerm;57660;51.436;5.978;2023-06-10T00:50:59;47.30;46.17;48.15;;
67304;Laerm;57660;51.436;5.978;2023-06-10T00:51:21;47.29;46.29;48.15;;
67304;Laerm;57660;51.436;5.978;2023-06-10T00:51:36;47.30;46.36;48.18;;
67304;Laerm;57660;51.436;5.978;2023-06-10T00:51:46;47.32;46.38;48.27;;
67304;Laerm;57660;51.436;5.978;2023-06-10T00:51:57;47.35;46.42;48.07;;
67304;Laerm;57660;51.436;5.978;2023-06-10T00:52:20;47.30;46.18;48.23;;
67304;Laerm;57660;51.436;5.978;2023-06-10T00:52:34;47.31;46.62;48.22;;
67304;Laerm;57660;51.436;5.978;2023-06-10T00:52:45;47.31;46.45;48.08;;
67304;Laerm;57660;51.436;5.978;2023-06-10T00:53:07;47.32;46.53;48.28;;
67304;Laerm;57660;51.436;5.978;2023-06-10T00:53:18;47.29;46.42;48.09;;
67304;Laerm;57660;51.436;5.978;2023-06-10T00:53:31;47.30;46.37;48.12;;
67304;Laerm;57660;51.436;5.978;2023-06-10T00:53:44;47.30;46.38;48.23;;
67304;Laerm;57660;51.436;5.978;2023-06-10T00:53:55;47.29;46.37;48.19;;
67304;Laerm;57660;51.436;5.978;2023-06-10T00:54:12;47.30;46.61;48.23;;
67304;Laerm;57660;51.436;5.978;2023-06-10T00:54:41;47.31;46.43;48.03;;
67304;Laerm;57660;51.436;5.978;2023-06-10T00:54:51;47.30;46.03;48.30;;
67304;Laerm;57660;51.436;5.978;2023-06-10T00:55:20;47.31;46.15;48.29;;
67304;Laerm;57660;51.436;5.978;2023-06-10T00:55:30;47.33;46.33;48.24;;
67304;Laerm;57660;51.436;5.978;2023-06-10T00:55:50;47.31;46.36;48.19;;
67304;Laerm;57660;51.436;5.978;2023-06-10T00:56:18;47.29;46.44;48.24;;
67304;Laerm;57660;51.436;5.978;2023-06-10T00:56:28;47.30;46.19;48.16;;
67304;Laerm;57660;51.436;5.978;2023-06-10T00:56:47;47.33;46.55;48.16;;
67304;Laerm;57660;51.436;5.978;2023-06-10T00:57:00;47.32;46.47;48.36;;
67304;Laerm;57660;51.436;5.978;2023-06-10T00:57:13;47.31;46.36;48.08;;
67304;Laerm;57660;51.436;5.978;2023-06-10T00:57:26;47.31;46.36;48.14;;
67304;Laerm;57660;51.436;5.978;2023-06-10T00:57:36;47.28;46.40;48.27;;
67304;Laerm;57660;51.436;5.978;2023-06-10T00:57:47;47.32;46.53;48.13;;
67304;Laerm;57660;51.436;5.978;2023-06-10T00:58:01;47.30;46.22;48.11;;
67304;Laerm;57660;51.436;5.978;2023-06-10T00:58:22;47.32;46.41;48.19;;
67304;Laerm;57660;51.436;5.978;2023-06-10T00:58:38;47.31;46.38;48.02;;
67304;Laerm;57660;51.436;5.978;2023-06-10T00:58:49;47.30;46.28;48.43;;
67304;Laerm;57660;51.436;5.978;2023-06-10T00:59:08;47.33;46.43;48.30;;
67304;Laerm;57660;51.436;5.978;2023-06-10T00:59:19;47.31;46.13;48.26;;
67304;Laerm;57660;51.436;5.978;2023-06-10T00:59:38;47.34;46.50;48.08;;
67304;Laerm;57660;51.436;5.978;2023-06-10T00:59:50;47.31;46.46;48.29;;
67304;Laerm;57660;51.436;5.978;2023-06-10T01:00:09;47.28;46.20;48.16;;
67304;Laerm;57660;51.436;5.978;2023-06-10T01:00:20;47.31;46.44;48.20;;
67304;Laerm;57660;51.436;5.978;2023-06-10T01:00:39;47.26;46.41;48.28;;
67304;Laerm;57660;51.436;5.978;2023-06-10T01:00:50;47.28;46.13;48.16;;
67304;Laerm;57660;51.436;5.978;2023-06-10T01:01:07;47.31;46.24;48.26;;
67304;Laerm;57660;51.436;5.978;2023-06-10T01:01:20;47.32;46.21;48.25;;
67304;Laerm;57660;51.436;5.978;2023-06-10T01:01:37;47.35;46.35;48.15;;
67304;Laerm;57660;51.436;5.978;2023-06-10T01:01:49;47.31;46.43;48.15;;
67304;Laerm;57660;51.436;5.978;2023-06-10T01:02:07;47.30;46.38;48.08;;
67304;Laerm;57660;51.436;5.978;2023-06-10T01:02:17;47.28;46.28;48.23;;
67304;Laerm;57660;51.436;5.978;2023-06-10T01:02:31;47.29;46.34;48.24;;
67304;Laerm;57660;51.436;5.978;2023-06-10T01:02:53;47.31;46.32;48.16;;
67304;Laerm;57660;51.436;5.978;2023-06-10T01:03:12;47.32;46.27;48.25;;
67304;Laerm;57660;51.436;5.978;2023-06-10T01:03:23;47.30;46.21;48.15;;
67304;Laerm;57660;51.436;5.978;2023-06-10T01:03:43;47.32;46.56;48.26;;
67304;Laerm;57660;51.436;5.978;2023-06-10T01:03:55;47.32;46.41;48.29;;
67304;Laerm;57660;51.436;5.978;2023-06-10T01:04:08;47.31;46.50;48.19;;
67304;Laerm;57660;51.436;5.978;2023-06-10T01:04:21;47.31;46.31;48.13;;
67304;Laerm;57660;51.436;5.978;2023-06-10T01:04:37;47.30;46.35;48.15;;
67304;Laerm;57660;51.436;5.978;2023-06-10T01:04:47;47.29;46.37;48.20;;
67304;Laerm;57660;51.436;5.978;2023-06-10T01:04:59;47.33;46.54;48.25;;
67304;Laerm;57660;51.436;5.978;2023-06-10T01:05:36;47.31;46.18;48.47;;
67304;Laerm;57660;51.436;5.978;2023-06-10T01:05:51;47.30;46.31;48.30;;
67304;Laerm;57660;51.436;5.978;2023-06-10T01:06:18;47.32;46.23;48.17;;
67304;Laerm;57660;51.436;5.978;2023-06-10T01:06:52;47.34;46.30;48.14;;
67304;Laerm;57660;51.436;5.978;2023-06-10T01:07:26;47.33;46.06;48.12;;
67304;Laerm;57660;51.436;5.978;2023-06-10T01:08:17;47.33;46.35;48.23;;
67304;Laerm;57660;51.436;5.978;2023-06-10T01:08:45;47.32;46.42;48.27;;
67304;Laerm;57660;51.436;5.978;2023-06-10T01:09:38;47.36;46.47;48.15;;
67304;Laerm;57660;51.436;5.978;2023-06-10T01:10:15;47.34;46.31;48.36;;
67304;Laerm;57660;51.436;5.978;2023-06-10T01:10:32;47.32;46.48;48.20;;
67304;Laerm;57660;51.436;5.978;2023-06-10T01:10:49;47.36;46.43;48.16;;
67304;Laerm;57660;51.436;5.978;2023-06-10T01:11:15;47.30;46.24;48.38;;
67304;Laerm;57660;51.436;5.978;2023-06-10T01:11:28;47.36;46.51;48.07;;
67304;Laerm;57660;51.436;5.978;2023-06-10T01:12:16;47.34;46.37;48.31;;
67304;Laerm;57660;51.436;5.978;2023-06-10T01:13:05;47.33;46.27;48.29;;
67304;Laerm;57660;51.436;5.978;2023-06-10T01:13:18;47.32;46.12;48.29;;
67304;Laerm;57660;51.436;5.978;2023-06-10T01:13:31;47.32;46.19;48.29;;
67304;Laerm;57660;51.436;5.978;2023-06-10T01:13:46;47.31;46.49;48.18;;
67304;Laerm;57660;51.436;5.978;2023-06-10T01:14:08;47.31;46.44;48.00;;
67304;Laerm;57660;51.436;5.978;2023-06-10T01:14:19;47.33;46.40;48.25;;
67304;Laerm;57660;51.436;5.978;2023-06-10T01:14:33;47.30;46.26;48.25;;
67304;Laerm;57660;51.436;5.978;2023-06-10T01:14:43;47.31;46.60;48.07;;
67304;Laerm;57660;51.436;5.978;2023-06-10T01:15:01;47.32;46.44;48.18;;
67304;Laerm;57660;51.436;5.978;2023-06-10T01:15:12;47.35;45.94;48.37;;
67304;Laerm;57660;51.436;5.978;2023-06-10T01:15:50;47.33;46.41;48.27;;
67304;Laerm;57660;51.436;5.978;2023-06-10T01:16:16;47.30;46.39;48.16;;
67304;Laerm;57660;51.436;5.978;2023-06-10T01:16:36;47.31;46.29;48.10;;
67304;Laerm;57660;51.436;5.978;2023-06-10T01:16:46;47.32;46.37;48.24;;
67304;Laerm;57660;51.436;5.978;2023-06-10T01:17:07;47.30;46.30;48.14;;
67304;Laerm;57660;51.436;5.978;2023-06-10T01:17:18;47.30;46.44;48.18;;
67304;Laerm;57660;51.436;5.978;2023-06-10T01:17:32;47.32;46.40;48.48;;
67304;Laerm;57660;51.436;5.978;2023-06-10T01:18:11;47.33;46.25;48.41;;
67304;Laerm;57660;51.436;5.978;2023-06-10T01:18:31;47.29;46.48;48.24;;
67304;Laerm;57660;51.436;5.978;2023-06-10T01:18:42;47.35;46.34;48.20;;
67304;Laerm;57660;51.436;5.978;2023-06-10T01:19:05;47.29;46.39;48.05;;
67304;Laerm;57660;51.436;5.978;2023-06-10T01:19:16;47.33;46.24;48.26;;
67304;Laerm;57660;51.436;5.978;2023-06-10T01:19:33;47.30;46.56;48.31;;
67304;Laerm;57660;51.436;5.978;2023-06-10T01:19:53;47.34;46.46;48.21;;
67304;Laerm;57660;51.436;5.978;2023-06-10T01:20:21;47.32;46.31;48.28;;
67304;Laerm;57660;51.436;5.978;2023-06-10T01:20:32;47.33;46.46;48.17;;
67304;Laerm;57660;51.436;5.978;2023-06-10T01:20:43;47.33;46.47;48.11;;
67304;Laerm;57660;51.436;5.978;2023-06-10T01:21:03;47.35;46.41;48.39;;
67304;Laerm;57660;51.436;5.978;2023-06-10T01:21:19;47.33;46.27;48.27;;
67304;Laerm;57660;51.436;5.978;2023-06-10T01:21:32;47.32;46.44;48.20;;
67304;Laerm;57660;51.436;5.978;2023-06-10T01:21:43;47.33;46.16;48.10;;
67304;Laerm;57660;51.436;5.978;2023-06-10T01:22:08;47.32;46.43;48.24;;
67304;Laerm;57660;51.436;5.978;2023-06-10T01:22:51;47.33;46.38;48.19;;
67304;Laerm;57660;51.436;5.978;2023-06-10T01:23:23;47.33;46.32;48.17;;
67304;Laerm;57660;51.436;5.978;2023-06-10T01:23:33;47.31;46.24;48.05;;
67304;Laerm;57660;51.436;5.978;2023-06-10T01:23:44;47.32;46.33;48.25;;
67304;Laerm;57660;51.436;5.978;2023-06-10T01:24:33;47.34;46.31;48.23;;
67304;Laerm;57660;51.436;5.978;2023-06-10T01:24:44;47.30;46.09;48.25;;
67304;Laerm;57660;51.436;5.978;2023-06-10T01:25:03;47.36;46.24;48.20;;
67304;Laerm;57660;51.436;5.978;2023-06-10T01:25:13;47.32;46.42;48.17;;
67304;Laerm;57660;51.436;5.978;2023-06-10T01:25:43;47.28;46.18;48.14;;
67304;Laerm;57660;51.436;5.978;2023-06-10T01:26:05;47.31;46.20;48.33;;
67304;Laerm;57660;51.436;5.978;2023-06-10T01:26:17;47.34;46.28;48.16;;
67304;Laerm;57660;51.436;5.978;2023-06-10T01:26:33;47.34;46.54;48.26;;
67304;Laerm;57660;51.436;5.978;2023-06-10T01:26:44;47.35;46.52;48.12;;
67304;Laerm;57660;51.436;5.978;2023-06-10T01:27:02;47.33;46.59;48.16;;
67304;Laerm;57660;51.436;5.978;2023-06-10T01:27:16;47.34;46.45;48.36;;
67304;Laerm;57660;51.436;5.978;2023-06-10T01:27:36;47.33;46.44;48.20;;
67304;Laerm;57660;51.436;5.978;2023-06-10T01:27:49;47.33;46.35;48.31;;
67304;Laerm;57660;51.436;5.978;2023-06-10T01:28:11;47.32;46.44;48.26;;
67304;Laerm;57660;51.436;5.978;2023-06-10T01:29:43;47.35;46.45;48.37;;
67304;Laerm;57660;51.436;5.978;2023-06-10T01:30:05;47.33;46.30;48.17;;
67304;Laerm;57660;51.436;5.978;2023-06-10T01:30:18;47.35;46.47;48.55;;
67304;Laerm;57660;51.436;5.978;2023-06-10T01:31:13;47.34;46.54;48.25;;
67304;Laerm;57660;51.436;5.978;2023-06-10T01:31:48;47.33;46.45;48.15;;
67304;Laerm;57660;51.436;5.978;2023-06-10T01:32:51;47.34;46.33;48.21;;
67304;Laerm;57660;51.436;5.978;2023-06-10T01:33:04;47.34;46.36;48.12;;
67304;Laerm;57660;51.436;5.978;2023-06-10T01:33:17;47.34;46.47;48.16;;
67304;Laerm;57660;51.436;5.978;2023-06-10T01:33:36;47.32;46.46;48.33;;
67304;Laerm;57660;51.436;5.978;2023-06-10T01:33:47;47.33;46.48;48.14;;
67304;Laerm;57660;51.436;5.978;2023-06-10T01:34:07;47.34;46.46;48.25;;
67304;Laerm;57660;51.436;5.978;2023-06-10T01:34:18;47.35;46.38;48.46;;
67304;Laerm;57660;51.436;5.978;2023-06-10T01:34:29;47.32;46.25;48.17;;
67304;Laerm;57660;51.436;5.978;2023-06-10T01:34:47;47.33;46.47;48.27;;
67304;Laerm;57660;51.436;5.978;2023-06-10T01:35:03;47.37;46.51;48.27;;
67304;Laerm;57660;51.436;5.978;2023-06-10T01:35:15;47.35;46.40;48.57;;
67304;Laerm;57660;51.436;5.978;2023-06-10T01:35:33;47.39;46.48;48.34;;
67304;Laerm;57660;51.436;5.978;2023-06-10T01:35:46;47.32;46.41;48.18;;
67304;Laerm;57660;51.436;5.978;2023-06-10T01:36:00;47.34;46.37;48.07;;
67304;Laerm;57660;51.436;5.978;2023-06-10T01:36:18;47.33;46.43;48.26;;
67304;Laerm;57660;51.436;5.978;2023-06-10T01:36:31;47.32;46.39;48.54;;
67304;Laerm;57660;51.436;5.978;2023-06-10T01:36:50;47.31;46.46;48.20;;
67304;Laerm;57660;51.436;5.978;2023-06-10T01:37:09;47.31;46.46;48.41;;
67304;Laerm;57660;51.436;5.978;2023-06-10T01:37:21;47.31;46.24;48.03;;
67304;Laerm;57660;51.436;5.978;2023-06-10T01:37:40;47.31;46.39;48.29;;
67304;Laerm;57660;51.436;5.978;2023-06-10T01:37:53;47.34;46.26;48.22;;